createdAt,value
2023-03-02T00:02:17.732Z,98137.43
2023-03-02T00:05:00.511Z,98136.64
2023-03-02T00:07:34.520Z,98130.64
2023-03-02T00:10:04.194Z,98135.77
2023-03-02T00:12:34.154Z,98133.55
2023-03-02T00:15:03.855Z,98133.68
2023-03-02T00:17:31.828Z,98130.72
2023-03-02T00:20:11.611Z,98129.79
2023-03-02T00:22:54.797Z,98126.23
2023-03-02T00:25:23.749Z,98128.77
2023-03-02T00:27:53.016Z,98127.83
2023-03-02T00:30:22.129Z,98124.83
2023-03-02T00:32:50.356Z,98119.37
2023-03-02T00:35:18.471Z,98117.02
2023-03-02T00:37:47.053Z,98110.80
2023-03-02T00:40:18.071Z,98110.40
2023-03-02T00:42:46.075Z,98103.64
2023-03-02T00:45:14.180Z,98100.23
2023-03-02T00:47:43.242Z,98099.83
2023-03-02T00:50:13.975Z,98097.70
2023-03-02T00:52:43.766Z,98089.24
2023-03-02T00:55:12.027Z,98089.60
2023-03-02T00:57:40.516Z,98084.78
2023-03-02T01:00:11.493Z,98086.52
2023-03-02T01:02:44.631Z,98085.56
2023-03-02T01:05:16.352Z,98078.21
2023-03-02T01:07:45.590Z,98074.80
2023-03-02T01:10:14.391Z,98073.09
2023-03-02T01:12:43.433Z,98073.25
2023-03-02T01:15:12.820Z,98071.43
2023-03-02T01:17:42.915Z,98072.15
2023-03-02T01:20:14.177Z,98072.56
2023-03-02T01:22:45.631Z,98067.05
2023-03-02T01:25:14.598Z,98065.70
2023-03-02T01:27:44.255Z,98061.16
2023-03-02T01:30:13.507Z,98056.93
2023-03-02T01:32:42.717Z,98058.81
2023-03-02T01:35:11.127Z,98062.13
2023-03-02T01:37:40.831Z,98060.37
2023-03-02T01:40:10.448Z,98062.58
2023-03-02T01:42:45.469Z,98064.06
2023-03-02T01:45:32.604Z,98064.31
2023-03-02T01:48:00.766Z,98061.61
2023-03-02T01:50:36.080Z,98057.59
2023-03-02T01:53:04.818Z,98057.83
2023-03-02T01:55:37.837Z,98055.40
2023-03-02T01:58:06.861Z,98056.50
2023-03-02T02:00:39.413Z,98060.95
2023-03-02T02:03:25.338Z,98059.83
2023-03-02T02:06:19.617Z,98061.05
2023-03-02T02:08:50.000Z,98058.29
2023-03-02T02:11:18.233Z,98061.98
2023-03-02T02:13:57.481Z,98062.92
2023-03-02T02:16:32.620Z,98062.16
2023-03-02T02:19:04.761Z,98058.16
2023-03-02T02:21:32.818Z,98060.77
2023-03-02T02:24:12.072Z,98060.59
2023-03-02T02:26:52.543Z,98060.43
2023-03-02T02:29:39.849Z,98058.59
2023-03-02T02:32:17.473Z,98058.13
2023-03-02T02:34:54.791Z,98053.58
2023-03-02T02:37:42.170Z,98052.04
2023-03-02T02:40:52.983Z,98054.32
2023-03-02T02:43:24.049Z,98052.33
2023-03-02T02:45:55.565Z,98057.54
2023-03-02T02:48:27.522Z,98055.65
2023-03-02T02:51:00.689Z,98059.38
2023-03-02T02:53:39.763Z,98055.48
2023-03-02T02:56:12.507Z,98055.92
2023-03-02T02:58:49.627Z,98050.25
2023-03-02T03:01:20.497Z,98050.95
2023-03-02T03:04:02.909Z,98049.52
2023-03-02T03:06:38.578Z,98044.66
2023-03-02T03:09:11.837Z,98045.86
2023-03-02T03:11:51.854Z,98046.08
2023-03-02T03:14:26.922Z,98048.88
2023-03-02T03:16:55.827Z,98046.39
2023-03-02T03:19:27.946Z,98045.34
2023-03-02T03:22:00.895Z,98048.67
2023-03-02T03:24:34.689Z,98055.65
2023-03-02T03:27:06.596Z,98057.88
2023-03-02T03:29:39.063Z,98051.36
2023-03-02T03:32:10.041Z,98050.58
2023-03-02T03:34:41.099Z,98054.09
2023-03-02T03:37:17.924Z,98054.60
2023-03-02T03:39:47.444Z,98054.84
2023-03-02T03:42:16.249Z,98058.54
2023-03-02T03:44:49.304Z,98057.56
2023-03-02T03:47:18.013Z,98059.31
2023-03-02T03:49:46.799Z,98061.75
2023-03-02T03:52:16.391Z,98061.83
2023-03-02T03:54:44.908Z,98063.09
2023-03-02T03:57:12.955Z,98064.79
2023-03-02T03:59:41.100Z,98065.58
2023-03-02T04:02:11.139Z,98066.36
2023-03-02T04:04:46.603Z,98066.40
2023-03-02T04:07:19.184Z,98067.17
2023-03-02T04:09:48.763Z,98064.84
2023-03-02T04:12:17.584Z,98064.91
2023-03-02T04:14:54.197Z,98063.31
2023-03-02T04:17:22.464Z,98058.81
2023-03-02T04:19:51.086Z,98062.39
2023-03-02T04:22:20.252Z,98059.55
2023-03-02T04:24:51.260Z,98058.76
2023-03-02T04:27:21.058Z,98061.71
2023-03-02T04:29:51.915Z,98053.92
2023-03-02T04:32:21.785Z,98056.95
2023-03-02T04:34:55.251Z,98056.48
2023-03-02T04:37:25.190Z,98053.30
2023-03-02T04:39:53.777Z,98059.20
2023-03-02T04:42:22.343Z,98060.36
2023-03-02T04:44:50.472Z,98062.86
2023-03-02T04:47:19.299Z,98059.23
2023-03-02T04:49:49.569Z,98068.76
2023-03-02T04:52:18.618Z,98072.27
2023-03-02T04:54:47.378Z,98077.48
2023-03-02T04:57:16.863Z,98076.40
2023-03-02T04:59:46.049Z,98073.08
2023-03-02T05:02:14.284Z,98073.95
2023-03-02T05:04:42.648Z,98068.08
2023-03-02T05:07:12.154Z,98070.92
2023-03-02T05:09:42.191Z,98073.17
2023-03-02T05:12:10.914Z,98065.13
2023-03-02T05:14:41.460Z,98067.78
2023-03-02T05:17:09.744Z,98070.73
2023-03-02T05:19:39.130Z,98072.35
2023-03-02T05:22:07.564Z,98074.77
2023-03-02T05:24:35.824Z,98082.67
2023-03-02T05:27:03.945Z,98082.80
2023-03-02T05:29:34.774Z,98086.44
2023-03-02T05:32:03.805Z,98085.55
2023-03-02T05:34:31.976Z,98083.48
2023-03-02T05:37:03.622Z,98084.63
2023-03-02T05:39:32.258Z,98089.31
2023-03-02T05:42:00.641Z,98092.57
2023-03-02T05:44:28.763Z,98093.35
2023-03-02T05:46:57.139Z,98094.95
2023-03-02T05:49:27.483Z,98094.09
2023-03-02T05:51:56.118Z,98092.20
2023-03-02T05:54:24.117Z,98094.95
2023-03-02T05:56:52.237Z,98093.94
2023-03-02T05:59:20.479Z,98094.73
2023-03-02T06:02:02.006Z,98095.33
2023-03-02T06:04:30.348Z,98097.38
2023-03-02T06:07:00.889Z,98102.23
2023-03-02T06:09:29.168Z,98098.67
2023-03-02T06:12:00.081Z,98097.96
2023-03-02T06:14:28.629Z,98100.27
2023-03-02T06:16:57.314Z,98102.39
2023-03-02T06:19:27.151Z,98097.60
2023-03-02T06:21:55.289Z,98099.16
2023-03-02T06:24:23.996Z,98095.19
2023-03-02T06:26:54.425Z,98096.63
2023-03-02T06:29:24.128Z,98095.93
2023-03-02T06:31:52.617Z,98095.66
2023-03-02T06:34:22.134Z,98093.44
2023-03-02T06:36:53.632Z,98091.41
2023-03-02T06:39:28.389Z,98093.60
2023-03-02T06:41:56.705Z,98093.29
2023-03-02T06:44:25.406Z,98093.50
2023-03-02T06:46:54.306Z,98092.53
2023-03-02T06:49:22.538Z,98096.17
2023-03-02T06:51:53.462Z,98100.69
2023-03-02T06:54:25.962Z,98095.10
2023-03-02T06:56:57.108Z,98088.63
2023-03-02T06:59:25.361Z,98088.30
2023-03-02T07:01:53.944Z,98084.06
2023-03-02T07:04:22.611Z,98084.88
2023-03-02T07:06:51.813Z,98082.73
2023-03-02T07:09:20.257Z,98084.58
2023-03-02T07:11:48.638Z,98080.58
2023-03-02T07:14:18.592Z,98074.89
2023-03-02T07:16:46.786Z,98069.42
2023-03-02T07:19:15.223Z,98074.73
2023-03-02T07:21:43.301Z,98075.15
2023-03-02T07:24:11.314Z,98072.41
2023-03-02T07:26:40.750Z,98065.70
2023-03-02T07:29:10.966Z,98065.05
2023-03-02T07:31:39.012Z,98068.91
2023-03-02T07:34:07.250Z,98067.66
2023-03-02T07:36:35.556Z,98066.16
2023-03-02T07:39:04.655Z,98064.34
2023-03-02T07:41:34.273Z,98062.88
2023-03-02T07:44:03.703Z,98063.02
2023-03-02T07:46:34.242Z,98058.43
2023-03-02T07:49:04.690Z,98056.89
2023-03-02T07:51:35.195Z,98053.56
2023-03-02T07:54:05.345Z,98051.70
2023-03-02T07:56:35.331Z,98046.95
2023-03-02T07:59:04.171Z,98046.20
2023-03-02T08:01:34.339Z,98051.27
2023-03-02T08:04:02.557Z,98051.30
2023-03-02T08:06:31.714Z,98046.40
2023-03-02T08:09:04.001Z,98043.05
2023-03-02T08:11:32.621Z,98038.98
2023-03-02T08:14:03.430Z,98036.91
2023-03-02T08:16:31.950Z,98039.77
2023-03-02T08:19:00.556Z,98038.52
2023-03-02T08:21:29.478Z,98034.29
2023-03-02T08:23:59.505Z,98033.51
2023-03-02T08:26:28.026Z,98035.71
2023-03-02T08:28:56.343Z,98033.02
2023-03-02T08:31:27.284Z,98034.31
2023-03-02T08:33:56.726Z,98032.48
2023-03-02T08:36:25.973Z,98031.62
2023-03-02T08:38:54.954Z,98026.51
2023-03-02T08:41:24.484Z,98026.48
2023-03-02T08:43:55.604Z,98028.57
2023-03-02T08:46:26.209Z,98029.29
2023-03-02T08:48:55.077Z,98028.33
2023-03-02T08:51:25.951Z,98028.11
2023-03-02T08:53:56.734Z,98024.14
2023-03-02T08:56:29.072Z,98019.77
2023-03-02T08:59:07.262Z,98020.82
2023-03-02T09:01:40.766Z,98020.85
2023-03-02T09:04:11.299Z,98019.25
2023-03-02T09:06:43.286Z,98019.28
2023-03-02T09:09:14.079Z,98011.46
2023-03-02T09:11:43.655Z,98007.99
2023-03-02T09:14:12.466Z,98005.35
2023-03-02T09:16:41.723Z,98000.56
2023-03-02T09:19:13.514Z,97998.92
2023-03-02T09:21:41.983Z,98000.77
2023-03-02T09:24:10.446Z,97995.48
2023-03-02T09:26:39.376Z,97997.45
2023-03-02T09:29:10.551Z,97994.52
2023-03-02T09:31:39.218Z,97993.78
2023-03-02T09:34:07.723Z,97992.61
2023-03-02T09:36:36.738Z,97985.80
2023-03-02T09:39:12.496Z,97978.30
2023-03-02T09:42:18.683Z,97978.63
2023-03-02T09:45:16.696Z,97972.89
2023-03-02T09:47:59.788Z,97968.64
2023-03-02T09:50:34.902Z,97959.73
2023-03-02T09:53:43.396Z,97964.29
2023-03-02T09:56:19.628Z,97965.56
2023-03-02T09:59:05.478Z,97969.70
2023-03-02T10:01:45.991Z,97967.28
2023-03-02T10:04:41.716Z,97964.36
2023-03-02T10:07:30.273Z,97961.73
2023-03-02T10:14:15.052Z,97960.84
2023-03-02T10:16:49.230Z,97955.83
2023-03-02T10:19:38.281Z,97948.73
2023-03-02T10:22:13.536Z,97946.40
2023-03-02T10:26:00.115Z,97949.45
2023-03-02T10:28:24.532Z,97942.50
2023-03-02T10:31:14.574Z,97940.32
2023-03-02T10:33:43.406Z,97939.56
2023-03-02T10:36:30.020Z,97939.84
2023-03-02T10:39:01.276Z,97936.69
2023-03-02T10:41:35.861Z,97929.55
2023-03-02T10:44:08.979Z,97926.46
2023-03-02T10:46:47.255Z,97923.02
2023-03-02T10:49:30.629Z,97923.89
2023-03-02T10:52:16.702Z,97922.04
2023-03-02T10:54:45.790Z,97919.15
2023-03-02T10:57:23.957Z,97919.95
2023-03-02T11:00:19.253Z,97923.86
2023-03-02T11:03:04.975Z,97918.46
2023-03-02T11:05:36.542Z,97914.48
2023-03-02T11:08:10.001Z,97911.66
2023-03-02T11:10:56.944Z,97910.91
2023-03-02T11:13:31.254Z,97907.11
2023-03-02T11:16:06.659Z,97910.72
2023-03-02T11:18:35.206Z,97903.30
2023-03-02T11:21:22.994Z,97900.88
2023-03-02T11:24:15.495Z,97897.61
2023-03-02T11:26:54.001Z,97894.38
2023-03-02T11:29:37.593Z,97893.23
2023-03-02T11:32:09.102Z,97892.29
2023-03-02T11:34:56.727Z,97893.59
2023-03-02T11:37:49.952Z,97891.10
2023-03-02T11:40:48.869Z,97892.06
2023-03-02T11:43:17.587Z,97888.02
2023-03-02T11:45:48.492Z,97888.52
2023-03-02T11:48:20.010Z,97887.31
2023-03-02T11:51:02.319Z,97887.33
2023-03-02T11:53:40.092Z,97885.11
2023-03-02T11:56:11.319Z,97880.48
2023-03-02T11:58:42.369Z,97879.89
2023-03-02T12:01:27.721Z,97879.45
2023-03-02T12:04:11.262Z,97877.25
2023-03-02T12:06:45.366Z,97873.57
2023-03-02T12:09:22.877Z,97874.91
2023-03-02T12:12:22.813Z,97869.09
2023-03-02T12:14:53.239Z,97868.16
2023-03-02T12:17:27.827Z,97868.86
2023-03-02T12:20:10.158Z,97869.30
2023-03-02T12:22:40.256Z,97864.45
2023-03-02T12:25:19.517Z,97864.55
2023-03-02T12:27:50.553Z,97860.32
2023-03-02T12:30:23.663Z,97856.35
2023-03-02T12:33:10.383Z,97857.09
2023-03-02T12:35:39.143Z,97852.58
2023-03-02T12:38:27.207Z,97851.16
2023-03-02T12:41:33.999Z,97851.46
2023-03-02T12:44:33.982Z,97846.72
2023-03-02T12:47:04.655Z,97843.86
2023-03-02T12:49:52.515Z,97838.64
2023-03-02T12:52:33.660Z,97835.98
2023-03-02T12:55:18.683Z,97830.73
2023-03-02T12:57:53.728Z,97830.28
2023-03-02T13:00:27.500Z,97826.23
2023-03-02T13:02:59.087Z,97826.06
2023-03-02T13:05:31.218Z,97822.10
2023-03-02T13:08:03.792Z,97817.97
2023-03-02T13:10:48.246Z,97819.67
2023-03-02T13:13:29.004Z,97814.77
2023-03-02T13:16:01.502Z,97812.37
2023-03-02T13:18:34.008Z,97805.54
2023-03-02T13:21:04.934Z,97804.34
2023-03-02T13:23:34.741Z,97808.55
2023-03-02T13:26:05.787Z,97801.12
2023-03-02T13:28:37.586Z,97800.54
2023-03-02T13:31:18.181Z,97797.29
2023-03-02T13:33:50.810Z,97795.87
2023-03-02T13:36:21.915Z,97792.55
2023-03-02T13:39:03.431Z,97790.61
2023-03-02T13:42:00.929Z,97790.75
2023-03-02T13:44:33.012Z,97789.81
2023-03-02T13:47:04.460Z,97786.41
2023-03-02T13:49:35.622Z,97785.33
2023-03-02T13:52:17.046Z,97784.14
2023-03-02T13:54:50.027Z,97784.41
2023-03-02T13:57:29.694Z,97779.27
2023-03-02T14:00:00.556Z,97779.08
2023-03-02T14:02:30.954Z,97772.33
2023-03-02T14:04:59.458Z,97767.05
2023-03-02T14:07:29.264Z,97760.73
2023-03-02T14:09:59.326Z,97757.47
2023-03-02T14:12:31.650Z,97754.50
2023-03-02T14:15:04.126Z,97751.45
2023-03-02T14:17:33.469Z,97751.41
2023-03-02T14:20:04.021Z,97751.50
2023-03-02T14:22:36.200Z,97753.87
2023-03-02T14:25:09.206Z,97749.52
2023-03-02T14:27:42.500Z,97745.23
2023-03-02T14:30:28.996Z,97744.50
2023-03-02T14:32:59.530Z,97740.42
2023-03-02T14:35:28.420Z,97742.17
2023-03-02T14:37:57.336Z,97739.96
2023-03-02T14:40:28.452Z,97738.56
2023-03-02T14:42:56.944Z,97739.45
2023-03-02T14:45:25.372Z,97736.05
2023-03-02T14:47:53.583Z,97734.61
2023-03-02T14:50:23.780Z,97735.02
2023-03-02T14:52:56.095Z,97734.45
2023-03-02T14:55:29.346Z,97733.07
2023-03-02T14:58:04.645Z,97735.77
2023-03-02T15:00:33.051Z,97737.33
2023-03-02T15:03:01.630Z,97739.96
2023-03-02T15:05:36.184Z,97739.77
2023-03-02T15:08:05.648Z,97738.53
2023-03-02T15:10:37.307Z,97739.71
2023-03-02T15:13:08.133Z,97741.79
2023-03-02T15:15:38.776Z,97743.11
2023-03-02T15:18:07.757Z,97742.40
2023-03-02T15:20:36.601Z,97740.92
2023-03-02T15:23:07.338Z,97745.31
2023-03-02T15:25:35.659Z,97747.97
2023-03-02T15:28:04.416Z,97742.99
2023-03-02T15:30:32.999Z,97739.27
2023-03-02T15:33:01.179Z,97736.89
2023-03-02T15:35:31.565Z,97738.15
2023-03-02T15:38:03.194Z,97740.94
2023-03-02T15:40:34.008Z,97739.48
2023-03-02T15:43:04.814Z,97740.27
2023-03-02T15:45:34.517Z,97740.93
2023-03-02T15:48:30.817Z,97743.96
2023-03-02T15:51:05.446Z,97746.90
2023-03-02T15:53:37.909Z,97747.02
2023-03-02T15:56:16.037Z,97748.33
2023-03-02T15:58:49.354Z,97749.64
2023-03-02T16:01:17.766Z,97750.63
2023-03-02T16:03:46.851Z,97753.62
2023-03-02T16:06:19.653Z,97752.02
2023-03-02T16:08:48.059Z,97756.40
2023-03-02T16:11:19.067Z,97758.23
2023-03-02T16:13:48.610Z,97761.52
2023-03-02T16:16:16.884Z,97765.19
2023-03-02T16:18:50.725Z,97768.04
2023-03-02T16:21:20.136Z,97762.79
2023-03-02T16:23:49.217Z,97764.16
2023-03-02T16:26:20.820Z,97760.77
2023-03-02T16:29:16.049Z,97760.48
2023-03-02T16:31:47.157Z,97757.37
2023-03-02T16:34:16.019Z,97759.65
2023-03-02T16:36:47.424Z,97757.64
2023-03-02T16:39:15.931Z,97758.66
2023-03-02T16:41:44.700Z,97762.89
2023-03-02T16:44:16.394Z,97762.31
2023-03-02T16:46:45.179Z,97768.79
2023-03-02T16:49:14.086Z,97769.00
2023-03-02T16:51:46.664Z,97770.98
2023-03-02T16:54:18.562Z,97773.55
2023-03-02T16:56:47.629Z,97773.82
2023-03-02T16:59:21.125Z,97776.13
2023-03-02T17:01:51.537Z,97776.38
2023-03-02T17:04:21.368Z,97781.26
2023-03-02T17:07:00.509Z,97784.22
2023-03-02T17:09:32.021Z,97791.32
2023-03-02T17:12:00.326Z,97792.61
2023-03-02T17:14:29.819Z,97792.89
2023-03-02T17:16:58.615Z,97793.84
2023-03-02T17:19:31.815Z,97797.58
2023-03-02T17:22:02.149Z,97802.72
2023-03-02T17:24:31.739Z,97804.21
2023-03-02T17:27:03.352Z,97803.66
2023-03-02T17:29:31.807Z,97808.55
2023-03-02T17:32:00.289Z,97806.48
2023-03-02T17:34:31.964Z,97803.30
2023-03-02T17:37:01.114Z,97802.08
2023-03-02T17:39:30.365Z,97801.70
2023-03-02T17:41:59.034Z,97800.41
2023-03-02T17:44:29.740Z,97803.95
2023-03-02T17:46:57.981Z,97803.67
2023-03-02T17:49:26.485Z,97805.30
2023-03-02T17:51:54.927Z,97802.38
2023-03-02T17:54:24.361Z,97809.27
2023-03-02T17:57:00.389Z,97807.93
2023-03-02T17:59:29.901Z,97808.96
2023-03-02T18:02:01.474Z,97810.21
2023-03-02T18:04:33.083Z,97811.70
2023-03-02T18:07:02.374Z,97814.91
2023-03-02T18:09:30.992Z,97813.86
2023-03-02T18:12:01.253Z,97813.60
2023-03-02T18:14:30.826Z,97812.38
2023-03-02T18:17:00.106Z,97813.13
2023-03-02T18:19:33.152Z,97811.80
2023-03-02T18:22:01.503Z,97809.40
2023-03-02T18:24:32.251Z,97809.46
2023-03-02T18:27:03.518Z,97813.58
2023-03-02T18:29:33.402Z,97812.77
2023-03-02T18:32:04.226Z,97814.75
2023-03-02T18:34:32.864Z,97817.41
2023-03-02T18:37:03.797Z,97817.13
2023-03-02T18:39:32.194Z,97817.14
2023-03-02T18:42:00.661Z,97822.80
2023-03-02T18:44:31.760Z,97825.45
2023-03-02T18:47:01.269Z,97827.91
2023-03-02T18:49:31.213Z,97822.41
2023-03-02T18:52:05.899Z,97829.49
2023-03-02T18:54:37.610Z,97825.48
2023-03-02T18:57:07.536Z,97829.48
2023-03-02T18:59:36.825Z,97833.77
2023-03-02T19:02:12.399Z,97835.30
2023-03-02T19:04:40.876Z,97831.74
2023-03-02T19:07:09.573Z,97835.58
2023-03-02T19:09:38.055Z,97836.83
2023-03-02T19:12:07.479Z,97839.30
2023-03-02T19:14:35.945Z,97837.58
2023-03-02T19:17:06.496Z,97842.80
2023-03-02T19:19:36.956Z,97846.95
2023-03-02T19:22:09.384Z,97845.08
2023-03-02T19:24:37.690Z,97845.77
2023-03-02T19:27:05.833Z,97850.46
2023-03-02T19:29:34.151Z,97848.64
2023-03-02T19:32:02.593Z,97850.52
2023-03-02T19:34:30.810Z,97850.48
2023-03-02T19:36:59.416Z,97855.66
2023-03-02T19:39:28.109Z,97858.52
2023-03-02T19:41:56.426Z,97857.70
2023-03-02T19:44:25.843Z,97863.10
2023-03-02T19:46:55.377Z,97862.86
2023-03-02T19:49:23.804Z,97863.06
2023-03-02T19:51:56.539Z,97861.73
2023-03-02T19:54:25.017Z,97862.98
2023-03-02T19:56:56.410Z,97861.03
2023-03-02T19:59:25.430Z,97864.25
2023-03-02T20:01:55.384Z,97862.64
2023-03-02T20:04:24.449Z,97866.27
2023-03-02T20:06:52.592Z,97864.77
2023-03-02T20:09:21.646Z,97869.81
2023-03-02T20:11:50.456Z,97865.77
2023-03-02T20:14:31.578Z,97865.56
2023-03-02T20:17:02.908Z,97863.67
2023-03-02T20:19:31.819Z,97864.88
2023-03-02T20:21:59.835Z,97863.20
2023-03-02T20:24:28.525Z,97860.27
2023-03-02T20:26:58.536Z,97861.30
2023-03-02T20:29:28.360Z,97856.48
2023-03-02T20:31:58.104Z,97856.54
2023-03-02T20:34:28.406Z,97858.02
2023-03-02T20:36:56.497Z,97857.96
2023-03-02T20:39:36.807Z,97855.30
2023-03-02T20:42:06.917Z,97853.16
2023-03-02T20:44:35.502Z,97850.54
2023-03-02T20:47:09.834Z,97850.63
2023-03-02T20:49:38.062Z,97852.78
2023-03-02T20:52:08.276Z,97849.39
2023-03-02T20:54:42.373Z,97843.38
2023-03-02T20:57:16.111Z,97843.30
2023-03-02T20:59:48.108Z,97841.66
2023-03-02T21:02:19.194Z,97839.48
2023-03-02T21:04:48.260Z,97840.27
2023-03-02T21:07:16.588Z,97836.71
2023-03-02T21:09:45.796Z,97838.35
2023-03-02T21:12:14.006Z,97833.39
2023-03-02T21:14:42.178Z,97834.02
2023-03-02T21:17:12.040Z,97831.04
2023-03-02T21:19:40.165Z,97834.23
2023-03-02T21:22:08.702Z,97831.79
2023-03-02T21:24:37.310Z,97832.77
2023-03-02T21:27:07.402Z,97834.69
2023-03-02T21:29:36.277Z,97831.30
2023-03-02T21:32:07.988Z,97829.98
2023-03-02T21:34:38.544Z,97828.73
2023-03-02T21:37:11.200Z,97831.38
2023-03-02T21:39:39.314Z,97825.38
2023-03-02T21:42:09.471Z,97821.83
2023-03-02T21:44:40.309Z,97822.66
2023-03-02T21:47:08.423Z,97818.26
2023-03-02T21:49:36.429Z,97820.08
2023-03-02T21:52:07.983Z,97817.92
2023-03-02T21:54:36.017Z,97819.77
2023-03-02T21:57:04.089Z,97820.31
2023-03-02T21:59:32.550Z,97817.77
2023-03-02T22:02:01.228Z,97818.91
2023-03-02T22:04:30.304Z,97819.58
2023-03-02T22:06:58.432Z,97818.67
2023-03-02T22:09:26.503Z,97816.71
2023-03-02T22:11:55.195Z,97810.12
2023-03-02T22:14:23.713Z,97809.56
2023-03-02T22:16:52.180Z,97809.52
2023-03-02T22:19:29.432Z,97811.25
2023-03-02T22:22:00.275Z,97808.70
2023-03-02T22:24:31.119Z,97811.67
2023-03-02T22:27:16.304Z,97813.48
2023-03-02T22:29:46.814Z,97812.34
2023-03-02T22:32:19.599Z,97810.17
2023-03-02T22:34:51.110Z,97807.39
2023-03-02T22:37:27.962Z,97807.70
2023-03-02T22:40:29.232Z,97806.73
2023-03-02T22:43:23.226Z,97806.25
2023-03-02T22:45:51.793Z,97806.13
2023-03-02T22:48:22.733Z,97801.70
2023-03-02T22:50:50.729Z,97802.54
2023-03-02T22:53:38.823Z,97807.04
2023-03-02T22:56:21.165Z,97803.22
2023-03-02T22:58:51.247Z,97805.86
2023-03-02T23:01:20.065Z,97801.11
2023-03-02T23:03:51.614Z,97798.86
2023-03-02T23:06:30.127Z,97798.13
2023-03-02T23:09:01.419Z,97795.98
2023-03-02T23:11:34.392Z,97799.04
2023-03-02T23:14:12.617Z,97795.62
2023-03-02T23:16:41.476Z,97794.41
2023-03-02T23:19:09.743Z,97791.92
2023-03-02T23:21:46.378Z,97790.12
2023-03-02T23:24:17.779Z,97790.80
2023-03-02T23:26:46.061Z,97783.98
2023-03-02T23:29:14.095Z,97782.96
2023-03-02T23:31:43.817Z,97783.09
2023-03-02T23:34:12.919Z,97779.95
2023-03-02T23:36:41.628Z,97776.75
2023-03-02T23:39:10.568Z,97773.22
2023-03-02T23:41:39.120Z,97768.61
2023-03-02T23:44:07.536Z,97770.95
2023-03-02T23:46:35.711Z,97769.34
2023-03-02T23:49:04.050Z,97763.41
2023-03-02T23:51:32.047Z,97763.14
2023-03-02T23:54:00.128Z,97758.02
2023-03-02T23:56:28.200Z,97752.61
2023-03-02T23:58:57.945Z,97752.95
